sensor_id;sensor_type;location;lat;lon;timestamp;P1;durP1;ratioP1;P2;durP2;ratioP2
39728;SDS011;25402;42.004;23.088;2022-10-16T00:59:01;6.57;;;4.32;;
39728;SDS011;25402;42.004;23.088;2022-10-16T01:01:51;11.10;;;4.35;;
39728;SDS011;25402;42.004;23.088;2022-10-16T01:04:36;13.65;;;4.50;;
39728;SDS011;25402;42.004;23.088;2022-10-16T01:07:15;9.63;;;5.28;;
39728;SDS011;25402;42.004;23.088;2022-10-16T01:10:03;10.48;;;3.97;;
39728;SDS011;25402;42.004;23.088;2022-10-16T01:13:10;11.50;;;5.00;;
39728;SDS011;25402;42.004;23.088;2022-10-16T01:15:54;6.68;;;4.55;;
39728;SDS011;25402;42.004;23.088;2022-10-16T01:18:47;9.80;;;5.95;;
39728;SDS011;25402;42.004;23.088;2022-10-16T01:21:42;8.80;;;5.10;;
39728;SDS011;25402;42.004;23.088;2022-10-16T01:24:44;11.48;;;4.40;;
39728;SDS011;25402;42.004;23.088;2022-10-16T01:27:43;7.47;;;4.60;;
39728;SDS011;25402;42.004;23.088;2022-10-16T01:30:26;6.00;;;4.13;;
39728;SDS011;25402;42.004;23.088;2022-10-16T02:46:20;12.57;;;5.43;;
39728;SDS011;25402;42.004;23.088;2022-10-16T02:49:06;9.43;;;5.78;;
39728;SDS011;25402;42.004;23.088;2022-10-16T02:51:41;9.95;;;5.90;;
39728;SDS011;25402;42.004;23.088;2022-10-16T02:54:40;13.00;;;6.07;;
39728;SDS011;25402;42.004;23.088;2022-10-16T02:57:44;20.40;;;8.00;;
39728;SDS011;25402;42.004;23.088;2022-10-16T03:00:15;11.55;;;6.55;;
39728;SDS011;25402;42.004;23.088;2022-10-16T03:03:07;12.77;;;6.72;;
39728;SDS011;25402;42.004;23.088;2022-10-16T03:06:02;12.63;;;6.55;;
39728;SDS011;25402;42.004;23.088;2022-10-16T03:08:38;14.20;;;6.18;;
39728;SDS011;25402;42.004;23.088;2022-10-16T03:11:12;14.82;;;6.78;;
39728;SDS011;25402;42.004;23.088;2022-10-16T03:13:55;24.13;;;5.80;;
39728;SDS011;25402;42.004;23.088;2022-10-16T03:17:07;11.38;;;6.13;;
39728;SDS011;25402;42.004;23.088;2022-10-16T03:23:11;12.18;;;5.90;;
39728;SDS011;25402;42.004;23.088;2022-10-16T03:26:22;14.80;;;7.47;;
39728;SDS011;25402;42.004;23.088;2022-10-16T03:29:32;14.88;;;6.88;;
39728;SDS011;25402;42.004;23.088;2022-10-16T03:32:17;10.73;;;6.20;;
39728;SDS011;25402;42.004;23.088;2022-10-16T03:37:54;10.35;;;6.05;;
39728;SDS011;25402;42.004;23.088;2022-10-16T03:40:53;11.77;;;6.15;;
39728;SDS011;25402;42.004;23.088;2022-10-16T03:43:42;10.55;;;6.03;;
39728;SDS011;25402;42.004;23.088;2022-10-16T03:46:38;12.82;;;6.55;;
39728;SDS011;25402;42.004;23.088;2022-10-16T03:49:33;11.57;;;5.80;;
39728;SDS011;25402;42.004;23.088;2022-10-16T03:55:35;13.20;;;6.55;;
39728;SDS011;25402;42.004;23.088;2022-10-16T04:02:07;12.88;;;5.97;;
39728;SDS011;25402;42.004;23.088;2022-10-16T04:05:09;9.25;;;5.45;;
39728;SDS011;25402;42.004;23.088;2022-10-16T04:08:08;14.07;;;5.97;;
39728;SDS011;25402;42.004;23.088;2022-10-16T04:11:27;11.23;;;5.70;;
39728;SDS011;25402;42.004;23.088;2022-10-16T04:14:15;12.90;;;5.53;;
39728;SDS011;25402;42.004;23.088;2022-10-16T04:37:41;12.63;;;5.43;;
39728;SDS011;25402;42.004;23.088;2022-10-16T04:40:21;14.05;;;5.47;;
39728;SDS011;25402;42.004;23.088;2022-10-16T04:42:54;17.30;;;7.78;;
39728;SDS011;25402;42.004;23.088;2022-10-16T04:46:01;22.52;;;7.03;;
39728;SDS011;25402;42.004;23.088;2022-10-16T04:51:43;17.60;;;6.75;;
39728;SDS011;25402;42.004;23.088;2022-10-16T04:54:39;15.18;;;7.28;;
39728;SDS011;25402;42.004;23.088;2022-10-16T04:57:43;18.67;;;7.05;;
39728;SDS011;25402;42.004;23.088;2022-10-16T05:00:44;13.65;;;6.10;;
39728;SDS011;25402;42.004;23.088;2022-10-16T05:03:37;13.82;;;5.57;;
39728;SDS011;25402;42.004;23.088;2022-10-16T05:06:45;19.13;;;6.40;;
39728;SDS011;25402;42.004;23.088;2022-10-16T05:09:20;16.25;;;6.57;;
39728;SDS011;25402;42.004;23.088;2022-10-16T05:12:03;15.95;;;6.70;;
39728;SDS011;25402;42.004;23.088;2022-10-16T05:15:10;14.50;;;7.10;;
39728;SDS011;25402;42.004;23.088;2022-10-16T05:18:00;11.85;;;6.90;;
39728;SDS011;25402;42.004;23.088;2022-10-16T05:20:58;12.80;;;7.25;;
39728;SDS011;25402;42.004;23.088;2022-10-16T05:24:10;17.10;;;6.68;;
39728;SDS011;25402;42.004;23.088;2022-10-16T05:27:12;15.13;;;5.97;;
39728;SDS011;25402;42.004;23.088;2022-10-16T05:30:08;12.10;;;5.97;;
39728;SDS011;25402;42.004;23.088;2022-10-16T05:32:53;13.70;;;5.95;;
39728;SDS011;25402;42.004;23.088;2022-10-16T05:35:46;13.55;;;5.50;;
39728;SDS011;25402;42.004;23.088;2022-10-16T05:38:29;11.82;;;5.13;;
39728;SDS011;25402;42.004;23.088;2022-10-16T05:41:26;12.98;;;5.18;;
39728;SDS011;25402;42.004;23.088;2022-10-16T05:47:37;11.07;;;5.57;;
39728;SDS011;25402;42.004;23.088;2022-10-16T05:50:56;12.43;;;6.63;;
39728;SDS011;25402;42.004;23.088;2022-10-16T05:53:58;10.88;;;6.32;;
39728;SDS011;25402;42.004;23.088;2022-10-16T09:21:30;11.95;;;4.80;;
39728;SDS011;25402;42.004;23.088;2022-10-16T09:28:01;12.02;;;5.65;;
39728;SDS011;25402;42.004;23.088;2022-10-16T09:31:18;15.85;;;6.13;;
39728;SDS011;25402;42.004;23.088;2022-10-16T09:33:57;15.93;;;5.82;;
39728;SDS011;25402;42.004;23.088;2022-10-16T09:37:16;12.98;;;5.63;;
39728;SDS011;25402;42.004;23.088;2022-10-16T09:39:48;16.13;;;5.95;;
39728;SDS011;25402;42.004;23.088;2022-10-16T09:42:27;17.50;;;6.30;;
39728;SDS011;25402;42.004;23.088;2022-10-16T09:44:59;11.82;;;5.15;;
39728;SDS011;25402;42.004;23.088;2022-10-16T09:47:28;10.45;;;4.88;;
39728;SDS011;25402;42.004;23.088;2022-10-16T09:49:58;10.70;;;4.45;;
39728;SDS011;25402;42.004;23.088;2022-10-16T09:55:15;10.52;;;4.18;;
39728;SDS011;25402;42.004;23.088;2022-10-16T09:57:51;10.02;;;4.60;;
39728;SDS011;25402;42.004;23.088;2022-10-16T10:00:19;8.65;;;4.55;;
39728;SDS011;25402;42.004;23.088;2022-10-16T10:02:47;9.52;;;4.03;;
39728;SDS011;25402;42.004;23.088;2022-10-16T10:05:18;11.30;;;4.07;;
39728;SDS011;25402;42.004;23.088;2022-10-16T10:07:55;12.10;;;4.22;;
39728;SDS011;25402;42.004;23.088;2022-10-16T10:10:25;8.48;;;4.20;;
39728;SDS011;25402;42.004;23.088;2022-10-16T10:12:55;11.65;;;4.40;;
39728;SDS011;25402;42.004;23.088;2022-10-16T10:15:22;7.55;;;4.00;;
39728;SDS011;25402;42.004;23.088;2022-10-16T10:17:52;6.78;;;4.32;;
39728;SDS011;25402;42.004;23.088;2022-10-16T10:20:24;13.35;;;4.07;;
39728;SDS011;25402;42.004;23.088;2022-10-16T10:22:55;9.10;;;4.07;;
39728;SDS011;25402;42.004;23.088;2022-10-16T10:25:27;8.27;;;3.72;;
39728;SDS011;25402;42.004;23.088;2022-10-16T10:28:18;11.95;;;3.70;;
39728;SDS011;25402;42.004;23.088;2022-10-16T10:31:09;10.07;;;4.70;;
39728;SDS011;25402;42.004;23.088;2022-10-16T10:33:42;7.78;;;4.20;;
39728;SDS011;25402;42.004;23.088;2022-10-16T10:36:16;5.13;;;3.42;;
39728;SDS011;25402;42.004;23.088;2022-10-16T10:38:56;7.28;;;4.25;;
39728;SDS011;25402;42.004;23.088;2022-10-16T10:44:37;10.55;;;4.22;;
39728;SDS011;25402;42.004;23.088;2022-10-16T10:47:22;5.07;;;3.90;;
39728;SDS011;25402;42.004;23.088;2022-10-16T10:49:57;7.57;;;3.78;;
39728;SDS011;25402;42.004;23.088;2022-10-16T10:52:41;6.90;;;3.90;;
39728;SDS011;25402;42.004;23.088;2022-10-16T10:55:19;7.60;;;3.80;;
39728;SDS011;25402;42.004;23.088;2022-10-16T10:58:08;6.78;;;3.35;;
39728;SDS011;25402;42.004;23.088;2022-10-16T11:00:57;10.68;;;3.90;;
39728;SDS011;25402;42.004;23.088;2022-10-16T11:03:34;5.90;;;3.47;;
39728;SDS011;25402;42.004;23.088;2022-10-16T11:06:14;17.77;;;4.15;;
39728;SDS011;25402;42.004;23.088;2022-10-16T11:08:45;9.45;;;3.70;;
39728;SDS011;25402;42.004;23.088;2022-10-16T11:11:18;8.95;;;3.80;;
39728;SDS011;25402;42.004;23.088;2022-10-16T11:13:52;6.75;;;3.78;;
39728;SDS011;25402;42.004;23.088;2022-10-16T11:16:26;11.45;;;3.83;;
39728;SDS011;25402;42.004;23.088;2022-10-16T11:18:56;8.18;;;3.78;;
39728;SDS011;25402;42.004;23.088;2022-10-16T11:21:29;6.47;;;3.45;;
39728;SDS011;25402;42.004;23.088;2022-10-16T11:24:01;8.30;;;3.67;;
39728;SDS011;25402;42.004;23.088;2022-10-16T11:26:39;8.77;;;4.03;;
39728;SDS011;25402;42.004;23.088;2022-10-16T11:29:11;8.95;;;3.90;;
39728;SDS011;25402;42.004;23.088;2022-10-16T11:31:45;8.15;;;3.47;;
39728;SDS011;25402;42.004;23.088;2022-10-16T11:34:17;9.07;;;3.58;;
39728;SDS011;25402;42.004;23.088;2022-10-16T11:36:51;7.45;;;3.40;;
39728;SDS011;25402;42.004;23.088;2022-10-16T11:39:24;12.68;;;4.60;;
39728;SDS011;25402;42.004;23.088;2022-10-16T11:41:55;9.73;;;5.22;;
39728;SDS011;25402;42.004;23.088;2022-10-16T11:44:36;23.95;;;5.45;;
39728;SDS011;25402;42.004;23.088;2022-10-16T11:47:13;9.63;;;4.88;;
39728;SDS011;25402;42.004;23.088;2022-10-16T11:49:50;9.80;;;4.95;;
39728;SDS011;25402;42.004;23.088;2022-10-16T11:52:25;10.82;;;3.95;;
39728;SDS011;25402;42.004;23.088;2022-10-16T11:54:59;8.38;;;3.60;;
39728;SDS011;25402;42.004;23.088;2022-10-16T12:00:03;9.05;;;4.00;;
39728;SDS011;25402;42.004;23.088;2022-10-16T12:02:38;15.73;;;4.75;;
39728;SDS011;25402;42.004;23.088;2022-10-16T12:05:18;38.03;;;4.82;;
39728;SDS011;25402;42.004;23.088;2022-10-16T12:07:52;15.30;;;4.28;;
39728;SDS011;25402;42.004;23.088;2022-10-16T12:10:28;9.80;;;4.72;;
39728;SDS011;25402;42.004;23.088;2022-10-16T12:13:03;17.05;;;4.30;;
39728;SDS011;25402;42.004;23.088;2022-10-16T12:15:31;14.50;;;4.65;;
39728;SDS011;25402;42.004;23.088;2022-10-16T12:18:00;7.55;;;4.30;;
39728;SDS011;25402;42.004;23.088;2022-10-16T12:20:28;10.75;;;4.32;;
39728;SDS011;25402;42.004;23.088;2022-10-16T12:22:58;10.93;;;3.90;;
39728;SDS011;25402;42.004;23.088;2022-10-16T12:25:28;13.77;;;4.35;;
39728;SDS011;25402;42.004;23.088;2022-10-16T12:27:57;6.68;;;3.72;;
39728;SDS011;25402;42.004;23.088;2022-10-16T12:30:28;11.88;;;4.20;;
39728;SDS011;25402;42.004;23.088;2022-10-16T12:32:58;12.13;;;3.90;;
39728;SDS011;25402;42.004;23.088;2022-10-16T12:35:28;8.23;;;3.75;;
39728;SDS011;25402;42.004;23.088;2022-10-16T12:38:05;12.07;;;3.90;;
39728;SDS011;25402;42.004;23.088;2022-10-16T12:40:35;11.10;;;4.35;;
39728;SDS011;25402;42.004;23.088;2022-10-16T12:43:11;7.05;;;3.80;;
39728;SDS011;25402;42.004;23.088;2022-10-16T12:45:59;9.77;;;3.60;;
39728;SDS011;25402;42.004;23.088;2022-10-16T12:48:28;9.55;;;4.35;;
39728;SDS011;25402;42.004;23.088;2022-10-16T12:50:55;12.73;;;3.88;;
39728;SDS011;25402;42.004;23.088;2022-10-16T12:53:23;11.07;;;4.00;;
39728;SDS011;25402;42.004;23.088;2022-10-16T12:55:59;15.70;;;4.45;;
39728;SDS011;25402;42.004;23.088;2022-10-16T12:58:39;13.15;;;3.70;;
39728;SDS011;25402;42.004;23.088;2022-10-16T13:01:19;11.07;;;3.15;;
39728;SDS011;25402;42.004;23.088;2022-10-16T13:04:02;9.95;;;4.07;;
39728;SDS011;25402;42.004;23.088;2022-10-16T13:06:49;9.80;;;4.43;;
39728;SDS011;25402;42.004;23.088;2022-10-16T13:09:34;7.25;;;4.13;;
39728;SDS011;25402;42.004;23.088;2022-10-16T13:12:15;8.95;;;4.63;;
39728;SDS011;25402;42.004;23.088;2022-10-16T13:15:09;17.85;;;5.60;;
39728;SDS011;25402;42.004;23.088;2022-10-16T13:17:49;10.93;;;4.97;;
39728;SDS011;25402;42.004;23.088;2022-10-16T13:20:26;8.77;;;4.53;;
39728;SDS011;25402;42.004;23.088;2022-10-16T13:23:03;14.80;;;4.95;;
39728;SDS011;25402;42.004;23.088;2022-10-16T13:25:49;10.15;;;4.45;;
39728;SDS011;25402;42.004;23.088;2022-10-16T13:28:28;10.45;;;4.50;;
39728;SDS011;25402;42.004;23.088;2022-10-16T13:30:57;12.60;;;4.32;;
39728;SDS011;25402;42.004;23.088;2022-10-16T13:33:30;6.57;;;3.67;;
39728;SDS011;25402;42.004;23.088;2022-10-16T13:35:59;7.82;;;3.92;;
39728;SDS011;25402;42.004;23.088;2022-10-16T13:38:28;11.90;;;3.92;;
39728;SDS011;25402;42.004;23.088;2022-10-16T13:40:57;6.05;;;3.70;;
39728;SDS011;25402;42.004;23.088;2022-10-16T13:43:27;6.10;;;3.33;;
39728;SDS011;25402;42.004;23.088;2022-10-16T13:45:56;6.45;;;3.65;;
39728;SDS011;25402;42.004;23.088;2022-10-16T13:48:25;6.10;;;3.40;;
39728;SDS011;25402;42.004;23.088;2022-10-16T13:51:01;5.55;;;3.40;;
39728;SDS011;25402;42.004;23.088;2022-10-16T13:53:30;7.72;;;2.90;;
39728;SDS011;25402;42.004;23.088;2022-10-16T13:55:59;5.15;;;3.15;;
39728;SDS011;25402;42.004;23.088;2022-10-16T13:58:26;5.68;;;3.35;;
39728;SDS011;25402;42.004;23.088;2022-10-16T14:00:54;10.25;;;2.85;;
39728;SDS011;25402;42.004;23.088;2022-10-16T14:03:23;4.40;;;2.97;;
39728;SDS011;25402;42.004;23.088;2022-10-16T14:05:51;7.93;;;2.83;;
39728;SDS011;25402;42.004;23.088;2022-10-16T14:08:22;6.97;;;3.20;;
39728;SDS011;25402;42.004;23.088;2022-10-16T14:10:52;5.03;;;2.88;;
39728;SDS011;25402;42.004;23.088;2022-10-16T14:13:24;5.65;;;2.90;;
39728;SDS011;25402;42.004;23.088;2022-10-16T14:15:56;9.35;;;3.40;;
39728;SDS011;25402;42.004;23.088;2022-10-16T14:18:26;5.03;;;3.05;;
39728;SDS011;25402;42.004;23.088;2022-10-16T14:20:55;5.18;;;2.80;;
39728;SDS011;25402;42.004;23.088;2022-10-16T14:23:33;5.25;;;3.10;;
39728;SDS011;25402;42.004;23.088;2022-10-16T14:29:00;5.85;;;3.13;;
39728;SDS011;25402;42.004;23.088;2022-10-16T14:31:31;6.22;;;3.22;;
39728;SDS011;25402;42.004;23.088;2022-10-16T14:34:01;11.57;;;4.18;;
39728;SDS011;25402;42.004;23.088;2022-10-16T14:36:28;14.00;;;3.58;;
39728;SDS011;25402;42.004;23.088;2022-10-16T14:38:59;9.30;;;3.60;;
39728;SDS011;25402;42.004;23.088;2022-10-16T14:41:28;5.45;;;3.38;;
39728;SDS011;25402;42.004;23.088;2022-10-16T14:43:57;6.72;;;3.80;;
39728;SDS011;25402;42.004;23.088;2022-10-16T14:46:30;8.85;;;4.35;;
39728;SDS011;25402;42.004;23.088;2022-10-16T14:49:01;8.20;;;3.88;;
39728;SDS011;25402;42.004;23.088;2022-10-16T14:51:31;5.13;;;3.20;;
39728;SDS011;25402;42.004;23.088;2022-10-16T14:54:00;8.43;;;3.40;;
39728;SDS011;25402;42.004;23.088;2022-10-16T14:56:29;7.07;;;3.50;;
39728;SDS011;25402;42.004;23.088;2022-10-16T14:58:57;10.45;;;3.60;;
39728;SDS011;25402;42.004;23.088;2022-10-16T15:01:24;8.25;;;3.08;;
39728;SDS011;25402;42.004;23.088;2022-10-16T15:03:51;6.85;;;3.22;;
39728;SDS011;25402;42.004;23.088;2022-10-16T15:06:20;6.78;;;3.20;;
39728;SDS011;25402;42.004;23.088;2022-10-16T15:08:47;11.82;;;3.75;;
39728;SDS011;25402;42.004;23.088;2022-10-16T15:11:16;6.45;;;3.08;;
39728;SDS011;25402;42.004;23.088;2022-10-16T15:13:45;13.55;;;2.78;;
39728;SDS011;25402;42.004;23.088;2022-10-16T15:16:13;5.97;;;2.90;;
39728;SDS011;25402;42.004;23.088;2022-10-16T15:18:41;5.63;;;3.20;;
39728;SDS011;25402;42.004;23.088;2022-10-16T15:21:10;6.32;;;3.30;;
39728;SDS011;25402;42.004;23.088;2022-10-16T15:23:48;3.72;;;2.58;;
39728;SDS011;25402;42.004;23.088;2022-10-16T15:26:16;5.75;;;2.92;;
39728;SDS011;25402;42.004;23.088;2022-10-16T15:28:43;9.07;;;2.78;;
39728;SDS011;25402;42.004;23.088;2022-10-16T15:31:10;10.65;;;3.45;;
39728;SDS011;25402;42.004;23.088;2022-10-16T15:33:37;3.83;;;2.78;;
39728;SDS011;25402;42.004;23.088;2022-10-16T15:36:05;10.48;;;3.17;;
39728;SDS011;25402;42.004;23.088;2022-10-16T15:38:33;5.68;;;2.78;;
39728;SDS011;25402;42.004;23.088;2022-10-16T15:41:03;7.55;;;2.95;;
39728;SDS011;25402;42.004;23.088;2022-10-16T15:43:32;10.02;;;3.72;;
39728;SDS011;25402;42.004;23.088;2022-10-16T15:46:00;8.07;;;3.58;;
39728;SDS011;25402;42.004;23.088;2022-10-16T15:48:29;5.65;;;3.28;;
39728;SDS011;25402;42.004;23.088;2022-10-16T15:50:56;6.35;;;3.20;;
39728;SDS011;25402;42.004;23.088;2022-10-16T15:53:23;7.10;;;3.15;;
39728;SDS011;25402;42.004;23.088;2022-10-16T15:55:50;10.32;;;3.60;;
39728;SDS011;25402;42.004;23.088;2022-10-16T15:58:19;6.82;;;3.58;;
39728;SDS011;25402;42.004;23.088;2022-10-16T16:03:37;8.77;;;3.92;;
39728;SDS011;25402;42.004;23.088;2022-10-16T22:51:19;16.27;;;5.95;;
39728;SDS011;25402;42.004;23.088;2022-10-16T22:54:11;11.27;;;5.70;;
39728;SDS011;25402;42.004;23.088;2022-10-16T22:57:16;12.45;;;6.53;;
39728;SDS011;25402;42.004;23.088;2022-10-16T22:59:51;13.45;;;6.47;;
39728;SDS011;25402;42.004;23.088;2022-10-16T23:02:40;15.82;;;6.15;;
39728;SDS011;25402;42.004;23.088;2022-10-16T23:09:05;15.52;;;6.30;;
39728;SDS011;25402;42.004;23.088;2022-10-16T23:12:00;11.73;;;5.75;;
39728;SDS011;25402;42.004;23.088;2022-10-16T23:56:51;9.10;;;5.32;;
39728;SDS011;25402;42.004;23.088;2022-10-16T23:59:33;13.82;;;7.20;;
